Startpagina
METAR-TAF:

METAR-TAF

Vliegvelden :

Flughafen Saarbrücken

Saarbrücken, Duitsland

breedte: 49-13N, lengte: 007-07E, hoogte: 322 m

Actueel weer

Dit bericht is 23 minuten geleden gemaakt, om 20:20 UTC
Wind 14 kt uit het oostnoordoosten
Temperatuur 1°C
Vochtigheid 80%
Druk 1007 hPa
Zicht 10 km of meer
Gebroken wolken op 3000 ft

METAR: EDDR 192020Z 07014KT 9999 BKN030 01/M02 Q1007 TEMPO 07015G25KT

Tijdstip: 21:43 (20:43 UTC)

Verwachting

Dit bericht is 3 uur en het 43 minuten geleden gemaakt, om 17:00 UTC
Verwachting geldig van 19 om 18 UTC tot 20 om 18 UTC
Wind 12 kt uit het oostnoordoosten
Zicht 10 km of meer
Gebroken wolken op 3500 ft
Tijdelijke
van 19 om 18 UTC tot 19 om 21 UTC
Zicht: 3000 m
Gebroken wolken op 1200 ft, Stapelwolken.
lichte sneeuwbuien
Tijdelijke
van 19 om 18 UTC tot 20 om 12 UTC
Wind 15 kt uit het oostnoordoosten met uitschieters tot 25 kt

TAF: EDDR 191700Z 1918/2018 06012KT 9999 BKN035 TEMPO 1918/1921 3000 -SHSN BKN012TCU TEMPO 1918/2012 06015G25KT

Waarnemingen en weersverwachtingen van meer dan 4000 vliegvelden (METAR en TAF).

De beschikbare stations zijn de gele en rode punten op de kaart.

Ga met uw muis naar het station om de naam te zien.

Klik dan om waarnemingen en weersverwachtingen te zien.

kaart wijzigen: klik op de groene knoppen met een zwart kruis om in te zoomen, op de groene knop met een streepje om uit te zoomen of op de groene pijlen voor aangrenzende kaarten.


METAR-TAF: